Time;durP1;ratioP1;P1;durP2;ratioP2;P2;SDS_P1;SDS_P2;PMS_P1;PMS_P2;Temp;Humidity;BMP_temperature;BMP_pressure;BME280_temperature;BME280_humidity;BME280_pressure;Samples;Min_cycle;Max_cycle;Signal;HPM_P1;HPM_P2
2023/12/08 00:00:34;;;;;;;7.17;6.10;;;;;;;;;;5053376;28;20567;-67
2023/12/08 00:03:00;;;;;;;6.90;5.77;;;;;;;;;;5035438;28;20260;-66
2023/12/08 00:05:26;;;;;;;10.83;6.23;;;;;;;;;;5052750;28;20171;-67
2023/12/08 00:07:52;;;;;;;9.03;5.63;;;;;;;;;;5053233;28;20261;-67
2023/12/08 00:10:18;;;;;;;7.87;5.57;;;;;;;;;;5035082;28;20186;-67
2023/12/08 00:12:44;;;;;;;8.07;6.47;;;;;;;;;;5053365;28;20189;-67
2023/12/08 00:15:10;;;;;;;8.07;6.20;;;;;;;;;;5053610;28;20186;-67
2023/12/08 00:17:36;;;;;;;8.00;6.00;;;;;;;;;;5053597;28;20202;-67
2023/12/08 00:20:03;;;;;;;7.67;6.70;;;;;;;;;;5035629;28;20194;-67
2023/12/08 00:22:29;;;;;;;9.23;6.33;;;;;;;;;;5053252;28;20261;-69
2023/12/08 00:24:55;;;;;;;10.47;7.03;;;;;;;;;;5053379;28;20198;-68
2023/12/08 00:27:21;;;;;;;12.23;6.27;;;;;;;;;;5053702;28;20244;-67
2023/12/08 00:29:47;;;;;;;8.97;6.87;;;;;;;;;;5035617;28;20244;-66
2023/12/08 00:32:13;;;;;;;8.67;6.90;;;;;;;;;;5035284;28;20273;-67
2023/12/08 00:34:39;;;;;;;10.00;7.47;;;;;;;;;;5053201;28;20257;-66
2023/12/08 00:37:04;;;;;;;8.57;6.27;;;;;;;;;;5053549;28;20621;-67
2023/12/08 00:39:30;;;;;;;7.63;6.37;;;;;;;;;;5053329;28;20277;-66
2023/12/08 00:41:56;;;;;;;9.10;7.43;;;;;;;;;;5053615;28;20676;-66
2023/12/08 00:44:23;;;;;;;10.37;7.70;;;;;;;;;;5053232;28;20193;-67
2023/12/08 00:46:49;;;;;;;8.57;7.20;;;;;;;;;;5053005;28;20233;-66
2023/12/08 00:49:15;;;;;;;9.20;7.57;;;;;;;;;;5053317;28;20530;-67
2023/12/08 00:51:41;;;;;;;9.67;7.30;;;;;;;;;;5054122;28;20183;-66
2023/12/08 00:54:07;;;;;;;9.90;7.63;;;;;;;;;;5058462;28;20189;-68
2023/12/08 00:56:33;;;;;;;9.13;7.20;;;;;;;;;;5058742;28;20228;-68
2023/12/08 00:58:59;;;;;;;10.17;7.20;;;;;;;;;;5058782;28;20721;-67
2023/12/08 01:01:25;;;;;;;11.17;7.40;;;;;;;;;;5040480;28;20559;-67
2023/12/08 01:03:51;;;;;;;10.03;7.33;;;;;;;;;;5040379;28;20232;-67
2023/12/08 01:06:17;;;;;;;9.10;6.93;;;;;;;;;;5057970;28;20195;-67
2023/12/08 01:08:43;;;;;;;9.33;7.40;;;;;;;;;;5058653;28;20186;-66
2023/12/08 01:11:09;;;;;;;9.93;7.50;;;;;;;;;;5040029;28;20235;-67
2023/12/08 01:13:35;;;;;;;10.23;6.93;;;;;;;;;;5040544;28;20206;-67
2023/12/08 01:16:01;;;;;;;10.27;7.23;;;;;;;;;;5040431;28;20202;-66
2023/12/08 01:18:27;;;;;;;10.97;7.77;;;;;;;;;;5058052;28;20257;-66
2023/12/08 01:20:54;;;;;;;11.13;8.20;;;;;;;;;;5040061;28;20210;-68
2023/12/08 01:23:20;;;;;;;10.10;7.73;;;;;;;;;;5058180;28;20193;-67
2023/12/08 01:25:46;;;;;;;10.00;7.10;;;;;;;;;;5039867;28;20746;-67
2023/12/08 01:28:12;;;;;;;8.60;7.30;;;;;;;;;;5039852;28;20184;-68
2023/12/08 01:30:38;;;;;;;11.33;7.73;;;;;;;;;;5040009;28;20541;-67
2023/12/08 01:33:04;;;;;;;10.40;8.43;;;;;;;;;;5040250;28;20715;-68
2023/12/08 01:35:30;;;;;;;11.90;7.73;;;;;;;;;;5040269;28;20209;-68
2023/12/08 01:37:56;;;;;;;12.13;7.50;;;;;;;;;;5040722;28;20193;-68
2023/12/08 01:40:22;;;;;;;9.07;7.57;;;;;;;;;;5039645;28;20209;-68
2023/12/08 01:42:48;;;;;;;10.00;8.30;;;;;;;;;;5039629;28;20178;-67
2023/12/08 01:45:14;;;;;;;12.03;8.50;;;;;;;;;;5057281;28;20183;-67
2023/12/08 01:47:41;;;;;;;11.17;7.47;;;;;;;;;;5039017;28;20217;-68
2023/12/08 01:50:07;;;;;;;10.73;7.80;;;;;;;;;;5038282;28;20189;-68
2023/12/08 01:52:34;;;;;;;11.13;8.27;;;;;;;;;;5040615;28;20556;-67
2023/12/08 01:55:00;;;;;;;10.40;7.97;;;;;;;;;;5057369;28;20186;-66
2023/12/08 01:57:26;;;;;;;10.40;7.87;;;;;;;;;;5057928;28;20234;-67
2023/12/08 01:59:52;;;;;;;10.80;8.20;;;;;;;;;;5039784;28;20252;-67
2023/12/08 02:02:18;;;;;;;13.37;8.20;;;;;;;;;;5073126;22;20256;-68
2023/12/08 02:04:45;;;;;;;9.73;8.00;;;;;;;;;;5057891;28;20185;-70
2023/12/08 02:07:11;;;;;;;9.23;7.63;;;;;;;;;;5051742;28;20262;-71
2023/12/08 02:09:37;;;;;;;10.87;8.60;;;;;;;;;;5053322;28;20186;-71
2023/12/08 02:12:04;;;;;;;10.60;7.97;;;;;;;;;;5038472;28;20208;-71
2023/12/08 02:14:30;;;;;;;10.90;8.37;;;;;;;;;;5056044;28;20171;-71
2023/12/08 02:17:01;;;;;;;10.67;8.67;;;;;;;;;;5055319;28;20179;-71
2023/12/08 02:19:27;;;;;;;10.83;8.10;;;;;;;;;;5056057;28;20206;-69
2023/12/08 02:21:53;;;;;;;11.77;9.20;;;;;;;;;;5056489;28;20195;-70
2023/12/08 02:24:19;;;;;;;12.30;8.90;;;;;;;;;;5039314;28;20247;-70
2023/12/08 02:26:46;;;;;;;12.90;9.00;;;;;;;;;;5038845;28;20182;-70
2023/12/08 02:29:13;;;;;;;12.57;8.90;;;;;;;;;;5056952;28;20214;-68
2023/12/08 02:31:45;;;;;;;11.50;8.57;;;;;;;;;;5040235;28;20233;-68
2023/12/08 02:34:12;;;;;;;12.27;8.63;;;;;;;;;;5040598;28;20176;-70
2023/12/08 02:36:39;;;;;;;12.33;8.20;;;;;;;;;;5035922;28;20183;-69
2023/12/08 02:39:06;;;;;;;11.73;8.97;;;;;;;;;;5055187;28;20195;-69
2023/12/08 02:41:32;;;;;;;12.90;8.97;;;;;;;;;;5045332;28;20225;-68
2023/12/08 02:43:58;;;;;;;11.43;9.03;;;;;;;;;;5023009;28;20194;-68
2023/12/08 02:46:24;;;;;;;11.97;9.47;;;;;;;;;;5037082;28;20171;-68
2023/12/08 02:48:50;;;;;;;14.53;8.83;;;;;;;;;;5017732;28;20175;-68
2023/12/08 02:51:16;;;;;;;13.80;9.47;;;;;;;;;;5017653;28;20688;-68
2023/12/08 02:53:42;;;;;;;14.20;9.90;;;;;;;;;;5035765;28;20642;-68
2023/12/08 02:56:08;;;;;;;12.97;10.70;;;;;;;;;;5035131;28;20700;-68
2023/12/08 02:58:34;;;;;;;14.47;10.87;;;;;;;;;;5017577;28;20560;-68
2023/12/08 03:01:01;;;;;;;12.97;9.13;;;;;;;;;;5017142;28;20179;-71
2023/12/08 03:03:27;;;;;;;15.37;10.33;;;;;;;;;;5016856;28;20655;-70
2023/12/08 03:05:52;;;;;;;12.47;9.97;;;;;;;;;;5035019;28;20195;-71
2023/12/08 03:08:18;;;;;;;14.13;10.40;;;;;;;;;;5016809;28;20637;-68
2023/12/08 03:10:44;;;;;;;14.70;10.70;;;;;;;;;;5017032;28;20186;-68
2023/12/08 03:13:11;;;;;;;14.00;11.07;;;;;;;;;;5034648;28;20293;-68
2023/12/08 03:15:37;;;;;;;14.77;10.30;;;;;;;;;;5033590;28;20176;-71
2023/12/08 03:18:03;;;;;;;15.57;10.80;;;;;;;;;;5034428;28;20175;-70
2023/12/08 03:20:28;;;;;;;15.13;10.33;;;;;;;;;;5034702;28;20252;-68
2023/12/08 03:22:55;;;;;;;17.00;11.93;;;;;;;;;;5016784;28;20199;-68
2023/12/08 03:25:21;;;;;;;12.40;9.90;;;;;;;;;;5016666;28;20171;-68
2023/12/08 03:27:47;;;;;;;15.37;10.97;;;;;;;;;;5034215;28;20225;-68
2023/12/08 03:30:13;;;;;;;15.00;10.73;;;;;;;;;;5034291;28;20183;-70
2023/12/08 03:32:39;;;;;;;15.50;11.83;;;;;;;;;;5034098;28;20210;-71
2023/12/08 03:35:05;;;;;;;15.70;11.13;;;;;;;;;;5034380;28;20183;-71
2023/12/08 03:37:31;;;;;;;14.57;11.13;;;;;;;;;;5016322;28;20187;-71
2023/12/08 03:39:57;;;;;;;14.67;10.90;;;;;;;;;;5016433;28;20268;-70
2023/12/08 03:42:23;;;;;;;15.23;11.93;;;;;;;;;;5015963;28;20192;-70
2023/12/08 03:44:49;;;;;;;14.80;11.93;;;;;;;;;;5034791;28;20175;-70
2023/12/08 03:47:16;;;;;;;12.47;10.50;;;;;;;;;;5016279;28;20179;-70
2023/12/08 03:49:42;;;;;;;16.27;11.23;;;;;;;;;;5033757;28;20179;-70
2023/12/08 03:52:08;;;;;;;19.23;12.63;;;;;;;;;;5016363;28;20210;-70
2023/12/08 03:54:34;;;;;;;21.70;13.37;;;;;;;;;;5016223;28;20190;-70
2023/12/08 03:57:00;;;;;;;21.70;13.33;;;;;;;;;;5034315;28;20186;-70
2023/12/08 03:59:26;;;;;;;21.70;13.00;;;;;;;;;;5017482;28;20207;-70
2023/12/08 04:01:52;;;;;;;21.37;14.30;;;;;;;;;;5034241;28;20226;-70
2023/12/08 04:04:18;;;;;;;20.80;13.90;;;;;;;;;;5015912;28;20189;-70
2023/12/08 04:06:44;;;;;;;21.77;12.90;;;;;;;;;;5033896;28;20258;-70
2023/12/08 04:09:11;;;;;;;27.97;16.87;;;;;;;;;;5033799;28;20254;-70
2023/12/08 04:11:37;;;;;;;20.30;13.73;;;;;;;;;;5033914;28;20239;-70
2023/12/08 04:14:03;;;;;;;17.63;11.93;;;;;;;;;;5034322;28;20179;-70
2023/12/08 04:16:28;;;;;;;21.23;13.50;;;;;;;;;;5033693;28;20220;-70
2023/12/08 04:18:54;;;;;;;15.83;10.30;;;;;;;;;;5034032;28;20324;-70
2023/12/08 04:21:20;;;;;;;21.77;14.23;;;;;;;;;;5016182;28;20575;-70
2023/12/08 04:23:46;;;;;;;17.33;11.60;;;;;;;;;;5034227;28;20633;-70
2023/12/08 04:26:13;;;;;;;15.27;10.80;;;;;;;;;;5034270;28;20203;-70
2023/12/08 04:28:39;;;;;;;15.27;11.23;;;;;;;;;;5037395;28;20656;-70
2023/12/08 04:31:05;;;;;;;15.67;11.77;;;;;;;;;;5038213;28;20171;-69
2023/12/08 04:33:31;;;;;;;14.67;11.07;;;;;;;;;;5037687;28;20199;-71
2023/12/08 04:35:57;;;;;;;20.50;12.77;;;;;;;;;;5020303;28;20199;-70
2023/12/08 04:38:23;;;;;;;12.50;9.43;;;;;;;;;;5037492;28;20187;-71
2023/12/08 04:40:49;;;;;;;14.87;10.90;;;;;;;;;;5037819;28;20179;-71
2023/12/08 04:43:15;;;;;;;22.60;12.87;;;;;;;;;;5037964;28;20199;-71
2023/12/08 04:45:41;;;;;;;15.07;11.27;;;;;;;;;;5037693;28;20179;-71
2023/12/08 04:48:07;;;;;;;18.20;11.87;;;;;;;;;;5037483;28;20638;-71
2023/12/08 04:50:33;;;;;;;15.50;11.83;;;;;;;;;;5037947;28;20175;-71
2023/12/08 04:53:00;;;;;;;18.23;12.70;;;;;;;;;;5037340;28;20695;-71
2023/12/08 04:55:26;;;;;;;19.03;13.27;;;;;;;;;;5037770;28;20178;-71
2023/12/08 04:57:52;;;;;;;17.97;12.27;;;;;;;;;;5037338;28;20179;-71
2023/12/08 05:00:18;;;;;;;16.93;12.47;;;;;;;;;;5037167;28;20233;-70
2023/12/08 05:02:44;;;;;;;19.43;14.10;;;;;;;;;;5019078;28;20219;-71
2023/12/08 05:05:10;;;;;;;17.57;13.37;;;;;;;;;;5037063;28;20628;-71
2023/12/08 05:07:36;;;;;;;18.03;13.03;;;;;;;;;;5036995;28;20206;-71
2023/12/08 05:10:02;;;;;;;21.27;14.17;;;;;;;;;;5037133;28;20629;-71
2023/12/08 05:12:28;;;;;;;18.97;14.27;;;;;;;;;;5036621;28;20579;-71
2023/12/08 05:14:54;;;;;;;18.90;13.33;;;;;;;;;;5018714;28;20183;-71
2023/12/08 05:17:20;;;;;;;22.60;15.73;;;;;;;;;;5036720;28;20249;-71
2023/12/08 05:19:46;;;;;;;21.50;14.63;;;;;;;;;;5018820;28;20206;-71
2023/12/08 05:22:12;;;;;;;19.77;14.80;;;;;;;;;;5036306;28;20202;-71
2023/12/08 05:24:38;;;;;;;21.63;15.00;;;;;;;;;;5018710;28;20561;-71
2023/12/08 05:27:04;;;;;;;21.97;15.77;;;;;;;;;;5036542;28;20187;-71
2023/12/08 05:29:30;;;;;;;19.50;15.13;;;;;;;;;;5036612;28;20245;-71
2023/12/08 05:31:56;;;;;;;21.27;15.47;;;;;;;;;;5036473;28;20325;-71
2023/12/08 05:34:22;;;;;;;23.57;16.37;;;;;;;;;;5036673;28;20543;-71
2023/12/08 05:36:48;;;;;;;22.67;16.40;;;;;;;;;;5035979;28;20183;-71
2023/12/08 05:39:14;;;;;;;20.93;15.87;;;;;;;;;;5035230;28;20203;-71
2023/12/08 05:41:40;;;;;;;21.70;16.33;;;;;;;;;;5036155;28;20676;-69
2023/12/08 05:44:06;;;;;;;23.47;17.00;;;;;;;;;;5036125;28;20183;-69
2023/12/08 05:46:32;;;;;;;28.03;18.17;;;;;;;;;;5018339;28;20187;-69
2023/12/08 05:48:58;;;;;;;23.93;15.87;;;;;;;;;;5036252;28;20189;-71
2023/12/08 05:51:24;;;;;;;27.67;18.97;;;;;;;;;;5018067;28;20270;-71
2023/12/08 05:53:50;;;;;;;26.17;18.37;;;;;;;;;;5018474;28;20186;-71
2023/12/08 05:56:16;;;;;;;26.93;17.37;;;;;;;;;;5036020;28;20188;-71
2023/12/08 05:58:42;;;;;;;23.97;16.80;;;;;;;;;;5035726;28;20187;-71
2023/12/08 06:01:08;;;;;;;26.10;18.83;;;;;;;;;;5035946;28;20178;-70
2023/12/08 06:03:34;;;;;;;27.50;19.60;;;;;;;;;;5035579;28;20207;-71
2023/12/08 06:06:00;;;;;;;27.13;18.83;;;;;;;;;;5035710;28;20186;-71
2023/12/08 06:08:26;;;;;;;28.70;20.53;;;;;;;;;;5035891;28;20559;-71
2023/12/08 06:10:52;;;;;;;24.50;17.03;;;;;;;;;;5036283;28;20522;-71
2023/12/08 06:13:18;;;;;;;27.10;18.20;;;;;;;;;;5035438;28;20202;-71
2023/12/08 06:15:44;;;;;;;25.30;18.03;;;;;;;;;;5035546;28;20211;-71
2023/12/08 06:18:11;;;;;;;26.03;17.77;;;;;;;;;;5035461;28;20218;-71
2023/12/08 06:20:37;;;;;;;28.50;18.80;;;;;;;;;;5017637;28;20213;-71
2023/12/08 06:23:03;;;;;;;24.77;18.43;;;;;;;;;;5035535;28;20191;-70
2023/12/08 06:25:29;;;;;;;24.20;16.97;;;;;;;;;;5017788;28;20175;-71
2023/12/08 06:27:55;;;;;;;25.70;18.00;;;;;;;;;;5035536;28;20255;-71
2023/12/08 06:30:21;;;;;;;29.57;19.60;;;;;;;;;;5035537;28;20183;-71
2023/12/08 06:32:47;;;;;;;24.30;18.47;;;;;;;;;;5035325;28;20290;-71
2023/12/08 06:35:13;;;;;;;23.10;17.33;;;;;;;;;;5035652;28;20179;-71
2023/12/08 06:37:39;;;;;;;25.13;18.27;;;;;;;;;;5017353;28;20337;-71
2023/12/08 06:40:06;;;;;;;26.33;18.20;;;;;;;;;;5035923;28;20207;-70
2023/12/08 06:42:32;;;;;;;26.43;18.27;;;;;;;;;;5035569;28;20198;-70
2023/12/08 06:44:58;;;;;;;24.87;17.60;;;;;;;;;;5035830;28;20171;-71
2023/12/08 06:47:24;;;;;;;21.97;17.23;;;;;;;;;;5017248;28;20179;-70
2023/12/08 06:49:50;;;;;;;25.93;18.07;;;;;;;;;;5017638;28;20218;-71
2023/12/08 06:52:15;;;;;;;26.87;18.13;;;;;;;;;;5017424;28;20260;-69
2023/12/08 06:54:41;;;;;;;26.70;17.17;;;;;;;;;;5017437;28;20183;-71
2023/12/08 06:57:08;;;;;;;24.03;17.20;;;;;;;;;;5017552;28;20186;-71
2023/12/08 06:59:34;;;;;;;25.47;17.70;;;;;;;;;;5017548;28;20221;-71
2023/12/08 07:02:00;;;;;;;25.67;17.87;;;;;;;;;;5034704;28;20298;-70
2023/12/08 07:04:27;;;;;;;25.60;17.63;;;;;;;;;;5034815;28;20250;-68
2023/12/08 07:06:53;;;;;;;24.83;17.30;;;;;;;;;;5017120;28;20179;-72
2023/12/08 07:09:19;;;;;;;26.30;17.20;;;;;;;;;;5017205;28;20187;-71
2023/12/08 07:11:45;;;;;;;27.80;18.97;;;;;;;;;;5034835;28;20202;-71
2023/12/08 07:14:11;;;;;;;25.37;17.60;;;;;;;;;;5034812;28;20179;-71
2023/12/08 07:16:37;;;;;;;24.20;19.17;;;;;;;;;;5034518;28;20186;-71
2023/12/08 07:19:03;;;;;;;26.47;18.87;;;;;;;;;;5034546;28;20202;-71
2023/12/08 07:21:29;;;;;;;26.47;17.90;;;;;;;;;;5034533;28;20180;-71
2023/12/08 07:23:55;;;;;;;29.00;19.83;;;;;;;;;;5016863;28;20183;-71
2023/12/08 07:26:21;;;;;;;28.10;19.20;;;;;;;;;;5034712;28;20174;-71
2023/12/08 07:28:47;;;;;;;28.43;18.30;;;;;;;;;;5034504;28;20179;-71
2023/12/08 07:31:13;;;;;;;24.03;18.73;;;;;;;;;;5034493;28;20673;-71
2023/12/08 07:33:39;;;;;;;27.07;19.57;;;;;;;;;;5034669;28;20175;-71
2023/12/08 07:36:06;;;;;;;27.77;19.60;;;;;;;;;;5016751;28;20649;-71
2023/12/08 07:38:32;;;;;;;26.33;18.43;;;;;;;;;;5034706;28;20175;-71
2023/12/08 07:40:58;;;;;;;25.93;19.40;;;;;;;;;;5037784;28;20228;-72
2023/12/08 07:43:24;;;;;;;27.73;18.40;;;;;;;;;;5040749;28;20191;-69
2023/12/08 07:45:51;;;;;;;28.27;19.67;;;;;;;;;;5039035;28;20178;-69
2023/12/08 07:48:17;;;;;;;28.20;19.87;;;;;;;;;;5042302;28;20171;-69
2023/12/08 07:50:43;;;;;;;25.60;19.40;;;;;;;;;;5016871;28;20187;-69
2023/12/08 07:53:09;;;;;;;30.47;20.17;;;;;;;;;;5034994;28;20214;-69
2023/12/08 07:55:34;;;;;;;27.20;18.23;;;;;;;;;;5034209;28;20190;-69
2023/12/08 07:58:00;;;;;;;25.17;17.40;;;;;;;;;;5016594;28;20179;-69
2023/12/08 08:00:26;;;;;;;25.77;18.70;;;;;;;;;;5034330;28;20211;-69
2023/12/08 08:02:52;;;;;;;30.00;18.73;;;;;;;;;;5033957;28;20280;-69
2023/12/08 08:05:19;;;;;;;56.73;38.03;;;;;;;;;;5034646;28;20186;-69
2023/12/08 08:07:45;;;;;;;35.47;24.70;;;;;;;;;;5034364;28;20254;-69
2023/12/08 08:10:11;;;;;;;32.10;22.30;;;;;;;;;;5034088;28;20261;-69
2023/12/08 08:12:37;;;;;;;28.03;20.20;;;;;;;;;;5034269;28;20253;-69
2023/12/08 08:15:03;;;;;;;46.80;33.97;;;;;;;;;;5033962;28;20183;-70
2023/12/08 08:17:29;;;;;;;28.77;21.30;;;;;;;;;;5015871;28;20191;-69
2023/12/08 08:19:55;;;;;;;37.90;24.70;;;;;;;;;;5034156;28;20249;-69
2023/12/08 08:22:21;;;;;;;30.37;21.80;;;;;;;;;;5034182;28;20195;-69
2023/12/08 08:24:47;;;;;;;30.77;21.23;;;;;;;;;;5015856;28;20650;-69
2023/12/08 08:27:13;;;;;;;37.63;26.83;;;;;;;;;;5033824;28;20171;-69
2023/12/08 08:29:39;;;;;;;35.03;23.47;;;;;;;;;;5034688;28;20203;-70
2023/12/08 08:32:05;;;;;;;30.07;19.70;;;;;;;;;;5016034;28;20252;-69
2023/12/08 08:34:31;;;;;;;36.80;25.17;;;;;;;;;;5034416;28;20190;-69
2023/12/08 08:36:57;;;;;;;70.60;45.23;;;;;;;;;;5036059;28;20175;-70
2023/12/08 08:39:23;;;;;;;107.87;62.60;;;;;;;;;;5037747;28;20206;-69
2023/12/08 08:41:50;;;;;;;42.80;28.27;;;;;;;;;;5037516;28;20199;-69
2023/12/08 08:44:15;;;;;;;37.50;26.10;;;;;;;;;;5038074;28;20176;-69
2023/12/08 08:46:42;;;;;;;36.10;24.90;;;;;;;;;;5035594;28;20767;-69
2023/12/08 08:49:09;;;;;;;25.63;19.47;;;;;;;;;;5033482;28;20271;-69
2023/12/08 08:51:35;;;;;;;27.93;20.63;;;;;;;;;;5033273;28;20242;-69
2023/12/08 08:54:02;;;;;;;38.00;26.20;;;;;;;;;;5015960;28;20194;-69
2023/12/08 08:56:28;;;;;;;36.57;27.10;;;;;;;;;;5033523;28;20668;-69
2023/12/08 08:58:54;;;;;;;29.60;20.43;;;;;;;;;;5033467;28;20298;-69
2023/12/08 09:01:19;;;;;;;30.00;21.90;;;;;;;;;;5033512;28;20171;-69
2023/12/08 09:03:45;;;;;;;67.27;48.10;;;;;;;;;;5033497;28;20182;-71
2023/12/08 09:06:11;;;;;;;41.13;22.10;;;;;;;;;;5033787;28;20176;-69
2023/12/08 09:08:37;;;;;;;48.07;28.87;;;;;;;;;;5015825;28;20660;-69
2023/12/08 09:11:03;;;;;;;48.23;32.87;;;;;;;;;;5015627;28;20179;-70
2023/12/08 09:13:31;;;;;;;34.20;20.33;;;;;;;;;;5033667;28;20202;-69
2023/12/08 09:15:58;;;;;;;35.47;25.47;;;;;;;;;;5018999;28;20552;-70
2023/12/08 09:18:23;;;;;;;48.43;36.23;;;;;;;;;;5019363;28;20179;-69
2023/12/08 09:20:49;;;;;;;37.07;25.27;;;;;;;;;;5018868;28;20554;-68
2023/12/08 09:23:15;;;;;;;29.23;21.20;;;;;;;;;;5019121;28;20195;-69
2023/12/08 09:25:42;;;;;;;71.40;46.87;;;;;;;;;;5036702;28;20608;-69
2023/12/08 09:28:07;;;;;;;43.00;27.80;;;;;;;;;;5036651;28;20281;-69
2023/12/08 09:30:34;;;;;;;28.63;19.87;;;;;;;;;;5036542;28;20556;-69
2023/12/08 09:33:00;;;;;;;31.57;22.27;;;;;;;;;;5036241;28;20195;-69
2023/12/08 09:35:26;;;;;;;32.53;22.50;;;;;;;;;;5036858;28;20218;-69
2023/12/08 09:37:52;;;;;;;40.37;27.27;;;;;;;;;;5036181;28;20183;-68
2023/12/08 09:40:18;;;;;;;67.37;40.50;;;;;;;;;;5036511;28;20202;-68
2023/12/08 09:42:48;;;;;;;34.23;24.07;;;;;;;;;;5018358;28;20735;-68
2023/12/08 09:45:13;;;;;;;37.50;23.13;;;;;;;;;;5018579;28;20179;-69
2023/12/08 09:47:44;;;;;;;40.73;29.30;;;;;;;;;;5036630;28;20182;-68
2023/12/08 09:50:10;;;;;;;39.40;25.00;;;;;;;;;;5035916;28;20302;-68
2023/12/08 09:52:36;;;;;;;37.03;26.07;;;;;;;;;;5035885;28;20572;-69
2023/12/08 09:55:04;;;;;;;37.17;23.73;;;;;;;;;;5036020;28;20190;-69
2023/12/08 09:57:31;;;;;;;51.87;33.13;;;;;;;;;;5018256;28;20190;-69
2023/12/08 10:00:00;;;;;;;58.17;37.77;;;;;;;;;;5035724;28;20203;-69
2023/12/08 10:02:26;;;;;;;46.63;29.07;;;;;;;;;;5035502;28;20211;-69
2023/12/08 10:04:54;;;;;;;37.37;24.70;;;;;;;;;;5036025;28;20271;-69
2023/12/08 10:07:20;;;;;;;67.40;44.00;;;;;;;;;;5018047;28;20187;-69
2023/12/08 10:09:47;;;;;;;40.60;27.23;;;;;;;;;;5036052;28;20180;-69
2023/12/08 10:12:12;;;;;;;35.93;24.80;;;;;;;;;;5036068;28;20199;-69
2023/12/08 10:15:11;;;;;;;42.57;26.07;;;;;;;;;;5036113;28;20179;-69
2023/12/08 10:17:49;;;;;;;43.00;25.67;;;;;;;;;;4982161;28;20195;-69
2023/12/08 10:20:17;;;;;;;49.20;32.40;;;;;;;;;;5017736;28;20210;-69
2023/12/08 10:22:43;;;;;;;36.23;23.50;;;;;;;;;;5018032;28;20191;-69
2023/12/08 10:25:09;;;;;;;44.43;30.57;;;;;;;;;;5035246;28;20228;-69
2023/12/08 10:27:35;;;;;;;64.93;46.03;;;;;;;;;;5036106;28;20175;-70
2023/12/08 10:30:03;;;;;;;41.80;27.43;;;;;;;;;;5018108;28;20183;-70
2023/12/08 10:32:29;;;;;;;48.57;28.53;;;;;;;;;;5036085;28;20632;-70
2023/12/08 10:34:56;;;;;;;46.47;28.07;;;;;;;;;;5035351;28;20180;-70
2023/12/08 10:37:22;;;;;;;46.53;26.83;;;;;;;;;;5036894;28;20179;-70
2023/12/08 10:39:48;;;;;;;45.87;31.87;;;;;;;;;;5017746;28;20207;-70
2023/12/08 10:42:15;;;;;;;93.67;67.47;;;;;;;;;;5018326;28;20203;-70
2023/12/08 10:44:45;;;;;;;51.43;31.47;;;;;;;;;;5036312;28;20187;-70
2023/12/08 10:47:12;;;;;;;45.37;28.23;;;;;;;;;;5018111;28;20179;-70
2023/12/08 10:49:39;;;;;;;81.67;52.63;;;;;;;;;;5035649;28;20187;-70
2023/12/08 10:52:06;;;;;;;49.83;32.37;;;;;;;;;;5035194;28;20674;-71
2023/12/08 10:54:32;;;;;;;54.37;28.50;;;;;;;;;;5035883;28;20226;-70
2023/12/08 10:57:00;;;;;;;40.83;24.30;;;;;;;;;;5037201;28;20180;-70
2023/12/08 10:59:26;;;;;;;45.70;27.33;;;;;;;;;;5035754;28;20216;-69
2023/12/08 11:02:01;;;;;;;42.47;25.73;;;;;;;;;;5017248;28;20219;-70
2023/12/08 11:04:28;;;;;;;44.53;29.37;;;;;;;;;;5035058;28;20198;-70
2023/12/08 11:07:00;;;;;;;43.40;26.37;;;;;;;;;;5018990;28;20175;-69
2023/12/08 11:09:28;;;;;;;45.73;26.23;;;;;;;;;;5018251;28;20182;-70
2023/12/08 11:11:57;;;;;;;53.03;25.77;;;;;;;;;;5036452;28;20209;-70
2023/12/08 11:14:38;;;;;;;46.07;27.07;;;;;;;;;;5035327;28;20187;-70
2023/12/08 11:17:06;;;;;;;50.40;26.60;;;;;;;;;;5035599;28;20171;-70
2023/12/08 11:19:34;;;;;;;44.93;27.70;;;;;;;;;;5034705;28;20203;-70
2023/12/08 11:22:00;;;;;;;50.77;30.27;;;;;;;;;;5034121;28;20195;-70
2023/12/08 11:24:27;;;;;;;49.43;30.07;;;;;;;;;;5034705;28;20700;-70
2023/12/08 11:27:04;;;;;;;52.50;29.27;;;;;;;;;;5034479;28;20175;-70
2023/12/08 11:29:49;;;;;;;52.33;31.10;;;;;;;;;;5040221;28;20205;-70
2023/12/08 11:32:29;;;;;;;50.47;30.00;;;;;;;;;;5035757;28;20227;-70
2023/12/08 11:34:58;;;;;;;52.33;30.33;;;;;;;;;;5042171;28;20212;-69
2023/12/08 11:37:24;;;;;;;51.83;29.73;;;;;;;;;;5037185;28;20187;-69
2023/12/08 11:39:51;;;;;;;45.93;28.63;;;;;;;;;;5034460;28;20270;-70
2023/12/08 11:42:20;;;;;;;52.07;30.17;;;;;;;;;;5051849;28;20218;-69
2023/12/08 11:44:47;;;;;;;42.87;28.57;;;;;;;;;;5053752;28;20186;-70
2023/12/08 11:47:17;;;;;;;57.07;32.80;;;;;;;;;;5054660;28;20183;-69
2023/12/08 11:49:44;;;;;;;51.03;31.13;;;;;;;;;;5054630;28;20182;-70
2023/12/08 11:52:17;;;;;;;50.47;28.87;;;;;;;;;;5052063;28;20266;-69
2023/12/08 11:55:00;;;;;;;51.90;29.57;;;;;;;;;;5028275;28;20540;-70
2023/12/08 11:57:26;;;;;;;49.37;28.23;;;;;;;;;;5034638;28;20175;-70
2023/12/08 11:59:52;;;;;;;48.50;29.60;;;;;;;;;;5034209;28;20199;-71
2023/12/08 12:02:18;;;;;;;50.73;30.47;;;;;;;;;;5015791;28;20234;-70
2023/12/08 12:04:44;;;;;;;50.53;30.50;;;;;;;;;;5033997;28;20298;-70
2023/12/08 12:07:10;;;;;;;50.77;31.30;;;;;;;;;;5034477;28;20183;-71
2023/12/08 12:09:36;;;;;;;51.83;29.23;;;;;;;;;;5034668;28;20186;-69
2023/12/08 12:12:06;;;;;;;50.27;30.67;;;;;;;;;;5036354;28;20207;-69
2023/12/08 12:14:34;;;;;;;51.57;28.87;;;;;;;;;;5018324;28;20187;-69
2023/12/08 12:17:00;;;;;;;49.27;29.30;;;;;;;;;;5034698;28;20189;-70
2023/12/08 12:19:26;;;;;;;46.37;27.10;;;;;;;;;;5033831;28;20210;-69
2023/12/08 12:21:52;;;;;;;43.80;25.77;;;;;;;;;;5034226;28;20195;-69
2023/12/08 12:24:18;;;;;;;41.13;27.57;;;;;;;;;;5033733;28;20182;-69
2023/12/08 12:26:44;;;;;;;48.80;28.37;;;;;;;;;;5016274;28;20274;-69
2023/12/08 12:29:10;;;;;;;45.37;25.80;;;;;;;;;;5016093;28;20224;-69
2023/12/08 12:31:37;;;;;;;45.10;25.70;;;;;;;;;;5033674;28;20203;-69
2023/12/08 12:34:04;;;;;;;41.50;24.77;;;;;;;;;;5033798;28;20214;-70
2023/12/08 12:36:30;;;;;;;45.93;27.03;;;;;;;;;;5033863;28;20266;-69
2023/12/08 12:38:57;;;;;;;38.90;24.40;;;;;;;;;;5033583;28;20187;-69
2023/12/08 12:41:23;;;;;;;38.07;25.43;;;;;;;;;;5033596;28;20253;-69
2023/12/08 12:43:55;;;;;;;39.83;26.57;;;;;;;;;;5033822;28;20229;-70
2023/12/08 12:46:21;;;;;;;43.77;26.00;;;;;;;;;;5015653;28;20183;-69
2023/12/08 12:48:47;;;;;;;41.80;25.00;;;;;;;;;;5035697;28;20179;-70
2023/12/08 12:51:14;;;;;;;38.43;24.63;;;;;;;;;;5037852;28;20591;-70
2023/12/08 12:53:44;;;;;;;38.80;25.43;;;;;;;;;;5037525;28;20230;-69
2023/12/08 12:56:10;;;;;;;42.77;24.30;;;;;;;;;;5037008;28;20194;-69
2023/12/08 12:58:36;;;;;;;38.83;25.63;;;;;;;;;;5037650;28;20262;-69
2023/12/08 13:01:11;;;;;;;41.73;23.47;;;;;;;;;;5037037;28;20245;-69
2023/12/08 13:03:44;;;;;;;40.50;27.00;;;;;;;;;;5037213;28;20191;-69
2023/12/08 13:06:10;;;;;;;37.40;23.83;;;;;;;;;;5037372;28;20164;-69
2023/12/08 13:08:45;;;;;;;36.80;23.90;;;;;;;;;;5019340;28;20267;-69
2023/12/08 13:11:11;;;;;;;38.90;23.33;;;;;;;;;;5037089;28;20175;-70
2023/12/08 13:13:37;;;;;;;40.43;24.63;;;;;;;;;;5038031;28;20187;-69
2023/12/08 13:16:04;;;;;;;42.90;24.73;;;;;;;;;;5036863;28;20198;-69
2023/12/08 13:18:30;;;;;;;39.97;25.17;;;;;;;;;;5036772;28;20186;-70
2023/12/08 13:20:56;;;;;;;41.40;22.87;;;;;;;;;;5036866;28;20289;-70
2023/12/08 13:23:22;;;;;;;46.90;27.07;;;;;;;;;;5036721;28;20199;-69
2023/12/08 13:25:48;;;;;;;40.77;23.77;;;;;;;;;;5037409;28;20199;-70
2023/12/08 13:28:14;;;;;;;39.20;26.00;;;;;;;;;;5037615;28;20221;-68
2023/12/08 13:30:40;;;;;;;43.83;25.23;;;;;;;;;;5018890;28;20190;-68
2023/12/08 13:33:08;;;;;;;51.60;25.57;;;;;;;;;;5037581;28;20202;-69
2023/12/08 13:35:35;;;;;;;43.97;25.87;;;;;;;;;;5036806;28;20180;-69
2023/12/08 13:38:01;;;;;;;46.63;26.40;;;;;;;;;;5036486;28;20183;-69
2023/12/08 13:40:28;;;;;;;42.43;26.27;;;;;;;;;;5018150;28;20302;-69
2023/12/08 13:42:54;;;;;;;45.30;24.33;;;;;;;;;;5018600;28;20584;-69
2023/12/08 13:45:20;;;;;;;49.53;26.37;;;;;;;;;;5036637;28;20263;-71
2023/12/08 13:47:46;;;;;;;54.37;24.43;;;;;;;;;;5036812;28;20179;-70
2023/12/08 13:50:12;;;;;;;43.70;23.83;;;;;;;;;;5019225;28;20183;-69
2023/12/08 13:52:38;;;;;;;42.53;24.77;;;;;;;;;;5037447;28;20214;-69
2023/12/08 13:55:04;;;;;;;57.27;23.53;;;;;;;;;;5036575;28;20183;-69
2023/12/08 13:57:30;;;;;;;37.73;24.60;;;;;;;;;;5036754;28;20175;-69
2023/12/08 13:59:56;;;;;;;51.33;26.97;;;;;;;;;;5036160;28;20199;-70
2023/12/08 14:02:22;;;;;;;50.57;26.40;;;;;;;;;;5036756;28;20207;-69
2023/12/08 14:04:48;;;;;;;50.10;27.93;;;;;;;;;;5038573;28;20313;-69
2023/12/08 14:07:14;;;;;;;89.90;47.00;;;;;;;;;;5037341;28;20209;-69
2023/12/08 14:09:40;;;;;;;110.53;53.90;;;;;;;;;;5036482;28;20179;-69
2023/12/08 14:12:06;;;;;;;103.27;47.57;;;;;;;;;;5037320;28;20561;-69
2023/12/08 14:14:32;;;;;;;61.43;30.63;;;;;;;;;;5019669;28;20183;-69
2023/12/08 14:16:57;;;;;;;75.53;36.27;;;;;;;;;;5036989;28;20179;-69